Time;durP1;ratioP1;P1;durP2;ratioP2;P2;SDS_P1;SDS_P2;PMS_P1;PMS_P2;Temp;Humidity;BMP_temperature;BMP_pressure;BME280_temperature;BME280_humidity;BME280_pressure;Samples;Min_cycle;Max_cycle;Signal;HPM_P1;HPM_P2
2022/04/13 00:00:32;;;;;;;5.45;2.40;;;;;;;;;;5053187;28;20131;-74
2022/04/13 00:02:58;;;;;;;6.97;2.40;;;;;;;;;;5053647;28;20029;-73
2022/04/13 00:05:24;;;;;;;4.45;2.03;;;;;;;;;;5052737;28;20040;-74
2022/04/13 00:07:50;;;;;;;5.93;2.50;;;;;;;;;;5051243;28;20028;-74
2022/04/13 00:10:16;;;;;;;6.53;2.40;;;;;;;;;;5051615;28;20037;-74
2022/04/13 00:12:42;;;;;;;4.70;2.40;;;;;;;;;;5052922;28;20032;-74
2022/04/13 00:15:09;;;;;;;4.70;2.13;;;;;;;;;;5052717;28;20470;-74
2022/04/13 00:17:36;;;;;;;4.82;2.25;;;;;;;;;;5052463;28;20025;-74
2022/04/13 00:20:06;;;;;;;5.47;2.45;;;;;;;;;;5052780;28;20033;-74
2022/04/13 00:22:32;;;;;;;5.05;2.50;;;;;;;;;;5052832;28;20049;-74
2022/04/13 00:24:58;;;;;;;5.18;2.05;;;;;;;;;;5052552;28;20029;-74
2022/04/13 00:27:24;;;;;;;6.85;2.40;;;;;;;;;;5052318;28;20032;-74
2022/04/13 00:29:50;;;;;;;5.07;2.42;;;;;;;;;;5052598;28;20531;-74
2022/04/13 00:32:16;;;;;;;6.88;2.47;;;;;;;;;;5052711;28;20496;-74
2022/04/13 00:34:42;;;;;;;6.88;2.20;;;;;;;;;;5050873;28;20068;-74
2022/04/13 00:37:08;;;;;;;5.30;2.38;;;;;;;;;;5050829;28;20075;-73
2022/04/13 00:39:34;;;;;;;4.82;2.58;;;;;;;;;;5052824;28;20437;-74
2022/04/13 00:42:04;;;;;;;5.97;2.55;;;;;;;;;;5052569;28;20425;-74
2022/04/13 00:44:30;;;;;;;5.25;2.50;;;;;;;;;;5052266;28;20039;-74
2022/04/13 00:46:57;;;;;;;4.20;2.28;;;;;;;;;;5052048;28;20543;-74
2022/04/13 00:49:25;;;;;;;4.60;2.47;;;;;;;;;;5052352;28;20025;-74
2022/04/13 00:51:52;;;;;;;5.43;2.20;;;;;;;;;;5052184;28;20017;-73
2022/04/13 00:54:18;;;;;;;5.30;2.30;;;;;;;;;;5050856;28;20039;-74
2022/04/13 00:56:48;;;;;;;6.03;2.53;;;;;;;;;;5051964;28;20028;-74
2022/04/13 00:59:15;;;;;;;5.50;2.50;;;;;;;;;;5052224;28;20036;-74
2022/04/13 01:01:46;;;;;;;6.00;2.60;;;;;;;;;;5050454;28;20448;-74
2022/04/13 01:04:13;;;;;;;9.43;2.65;;;;;;;;;;5046069;28;20039;-74
2022/04/13 01:06:39;;;;;;;4.90;2.20;;;;;;;;;;5050058;28;20036;-74
2022/04/13 01:09:05;;;;;;;6.07;2.55;;;;;;;;;;5051777;28;20039;-74
2022/04/13 01:11:31;;;;;;;7.30;2.70;;;;;;;;;;5052350;28;20116;-74
2022/04/13 01:13:58;;;;;;;5.65;2.55;;;;;;;;;;5045713;28;20033;-74
2022/04/13 01:16:25;;;;;;;9.52;3.38;;;;;;;;;;5031909;28;20036;-74
2022/04/13 01:18:55;;;;;;;8.20;3.03;;;;;;;;;;5031842;28;20025;-74
2022/04/13 01:21:44;;;;;;;7.95;3.03;;;;;;;;;;5032053;28;20032;-74
2022/04/13 01:24:11;;;;;;;6.60;2.45;;;;;;;;;;5030346;28;20044;-74
2022/04/13 01:26:37;;;;;;;4.90;2.35;;;;;;;;;;5031534;28;20030;-74
2022/04/13 01:29:05;;;;;;;5.10;2.40;;;;;;;;;;5031478;28;20133;-74
2022/04/13 01:31:32;;;;;;;6.53;2.70;;;;;;;;;;5031753;28;20379;-74
2022/04/13 01:33:59;;;;;;;7.13;2.70;;;;;;;;;;5031604;28;20029;-74
2022/04/13 01:36:26;;;;;;;5.45;2.40;;;;;;;;;;5031259;28;20041;-74
2022/04/13 01:38:54;;;;;;;5.13;2.28;;;;;;;;;;5031277;28;20036;-74
2022/04/13 01:41:20;;;;;;;6.55;2.47;;;;;;;;;;5031486;28;20022;-74
2022/04/13 01:43:46;;;;;;;7.30;2.47;;;;;;;;;;5031389;28;20502;-74
2022/04/13 01:46:15;;;;;;;5.70;2.50;;;;;;;;;;5030896;28;20060;-74
2022/04/13 01:48:41;;;;;;;3.67;2.20;;;;;;;;;;5040161;28;20033;-74
2022/04/13 01:51:07;;;;;;;3.78;2.30;;;;;;;;;;5051627;28;20063;-74
2022/04/13 01:53:32;;;;;;;6.07;2.60;;;;;;;;;;5051209;28;20039;-74
2022/04/13 01:55:58;;;;;;;7.13;2.70;;;;;;;;;;5050728;28;20481;-74
2022/04/13 01:58:25;;;;;;;5.60;2.22;;;;;;;;;;5050877;28;20132;-74
2022/04/13 02:00:53;;;;;;;5.40;2.30;;;;;;;;;;5049605;28;20504;-74
2022/04/13 02:03:26;;;;;;;6.35;2.65;;;;;;;;;;5050949;28;20029;-74
2022/04/13 02:05:55;;;;;;;5.32;2.70;;;;;;;;;;5050486;28;20033;-74
2022/04/13 02:08:22;;;;;;;4.50;2.00;;;;;;;;;;5050578;28;20029;-74
2022/04/13 02:10:49;;;;;;;5.63;2.28;;;;;;;;;;5049374;28;20497;-74
2022/04/13 02:13:15;;;;;;;5.70;2.20;;;;;;;;;;5050956;28;20442;-75
2022/04/13 02:15:41;;;;;;;4.35;2.65;;;;;;;;;;5049524;28;20088;-74
2022/04/13 02:18:10;;;;;;;6.65;2.50;;;;;;;;;;5050256;28;20055;-74
2022/04/13 02:20:36;;;;;;;5.45;2.50;;;;;;;;;;5050640;28;20025;-74
2022/04/13 02:23:02;;;;;;;5.70;2.20;;;;;;;;;;5050522;28;20060;-74
2022/04/13 02:25:28;;;;;;;6.82;2.60;;;;;;;;;;5050054;28;20057;-74
2022/04/13 02:27:54;;;;;;;4.53;2.45;;;;;;;;;;5050178;28;20029;-74
2022/04/13 02:30:20;;;;;;;7.60;2.30;;;;;;;;;;5050584;28;20664;-74
2022/04/13 02:32:46;;;;;;;4.95;2.60;;;;;;;;;;5050732;28;20028;-73
2022/04/13 02:35:13;;;;;;;3.83;2.30;;;;;;;;;;5049988;28;20025;-73
2022/04/13 02:37:40;;;;;;;5.75;2.50;;;;;;;;;;5050021;28;20365;-74
2022/04/13 02:40:07;;;;;;;7.97;2.50;;;;;;;;;;5050395;28;20032;-74
2022/04/13 02:42:34;;;;;;;9.20;2.55;;;;;;;;;;5050217;28;20025;-74
2022/04/13 02:45:00;;;;;;;6.03;2.35;;;;;;;;;;5049899;28;20033;-74
2022/04/13 02:47:27;;;;;;;5.63;2.75;;;;;;;;;;5049529;28;20031;-75
2022/04/13 02:49:54;;;;;;;7.15;2.55;;;;;;;;;;5050202;28;20497;-75
2022/04/13 02:52:23;;;;;;;4.70;2.50;;;;;;;;;;5050112;28;20040;-74
2022/04/13 02:54:49;;;;;;;6.13;2.88;;;;;;;;;;5049654;28;20025;-73
2022/04/13 02:57:15;;;;;;;6.53;2.30;;;;;;;;;;5041596;28;20072;-74
2022/04/13 02:59:45;;;;;;;7.80;2.60;;;;;;;;;;5048017;28;20096;-74
2022/04/13 03:02:18;;;;;;;5.15;2.30;;;;;;;;;;5057658;28;20035;-74
2022/04/13 03:04:46;;;;;;;6.00;2.65;;;;;;;;;;5055671;28;20032;-74
2022/04/13 03:07:14;;;;;;;5.97;2.45;;;;;;;;;;5047376;28;20376;-74
2022/04/13 03:09:40;;;;;;;5.20;2.63;;;;;;;;;;5036227;28;20033;-74
2022/04/13 03:12:07;;;;;;;5.70;2.20;;;;;;;;;;5030157;28;20025;-74
2022/04/13 03:14:35;;;;;;;4.40;2.50;;;;;;;;;;5029955;28;20034;-74
2022/04/13 03:17:01;;;;;;;7.60;2.50;;;;;;;;;;5048535;28;20017;-74
2022/04/13 03:19:27;;;;;;;7.63;2.78;;;;;;;;;;5049523;28;20028;-74
2022/04/13 03:21:54;;;;;;;8.18;2.60;;;;;;;;;;5049611;28;20056;-74
2022/04/13 03:24:24;;;;;;;5.72;2.97;;;;;;;;;;5048168;28;20037;-74
2022/04/13 03:26:51;;;;;;;6.13;2.83;;;;;;;;;;5048503;28;20029;-74
2022/04/13 03:29:18;;;;;;;6.95;3.00;;;;;;;;;;5049420;28;20131;-74
2022/04/13 03:31:44;;;;;;;6.53;3.00;;;;;;;;;;5049543;28;20040;-74
2022/04/13 03:34:10;;;;;;;5.47;2.78;;;;;;;;;;5049816;28;20036;-75
2022/04/13 03:36:41;;;;;;;6.18;3.10;;;;;;;;;;5048989;28;20021;-74
2022/04/13 03:39:08;;;;;;;8.45;3.15;;;;;;;;;;5049096;28;20415;-74
2022/04/13 03:41:35;;;;;;;11.02;3.00;;;;;;;;;;5048958;28;20032;-74
2022/04/13 03:44:01;;;;;;;7.68;2.90;;;;;;;;;;5048499;28;20029;-74
2022/04/13 03:46:27;;;;;;;6.93;3.17;;;;;;;;;;5046667;28;20032;-74
2022/04/13 03:48:53;;;;;;;10.35;3.05;;;;;;;;;;5047205;28;20721;-74
2022/04/13 03:51:18;;;;;;;7.57;3.00;;;;;;;;;;5047492;28;20047;-74
2022/04/13 03:53:44;;;;;;;8.02;3.08;;;;;;;;;;5048103;28;20468;-74
2022/04/13 03:56:10;;;;;;;6.38;2.90;;;;;;;;;;5046321;28;20152;-74
2022/04/13 03:58:36;;;;;;;7.60;3.05;;;;;;;;;;5048070;28;20124;-74
2022/04/13 04:01:02;;;;;;;7.80;3.15;;;;;;;;;;5049251;28;20028;-74
2022/04/13 04:03:28;;;;;;;7.35;2.92;;;;;;;;;;5048145;28;20079;-74
2022/04/13 04:05:54;;;;;;;6.90;2.92;;;;;;;;;;5049069;28;20060;-74
2022/04/13 04:08:20;;;;;;;5.35;3.20;;;;;;;;;;5048983;28;20389;-74
2022/04/13 04:10:46;;;;;;;7.65;3.45;;;;;;;;;;5049267;28;20060;-74
2022/04/13 04:13:11;;;;;;;6.07;3.00;;;;;;;;;;5047875;28;20539;-74
2022/04/13 04:15:37;;;;;;;5.50;3.05;;;;;;;;;;5048899;28;20052;-74
2022/04/13 04:18:03;;;;;;;7.10;3.10;;;;;;;;;;5049002;28;20065;-74
2022/04/13 04:20:29;;;;;;;6.70;3.17;;;;;;;;;;5048963;28;20382;-74
2022/04/13 04:22:55;;;;;;;8.82;3.55;;;;;;;;;;5048942;28;20025;-75
2022/04/13 04:25:21;;;;;;;8.40;3.42;;;;;;;;;;5048770;28;20052;-74
2022/04/13 04:27:49;;;;;;;9.40;3.58;;;;;;;;;;5048760;28;20067;-74
2022/04/13 04:30:15;;;;;;;13.18;4.10;;;;;;;;;;5048505;28;20025;-75
2022/04/13 04:32:41;;;;;;;11.88;3.97;;;;;;;;;;5048899;28;20033;-75
2022/04/13 04:35:08;;;;;;;8.43;3.80;;;;;;;;;;5048643;28;20120;-74
2022/04/13 04:37:34;;;;;;;13.05;4.55;;;;;;;;;;5049008;28;20040;-74
2022/04/13 04:40:00;;;;;;;13.38;4.03;;;;;;;;;;5052397;28;20037;-74
2022/04/13 04:42:27;;;;;;;10.70;4.00;;;;;;;;;;5052837;28;20036;-75
2022/04/13 04:44:59;;;;;;;10.77;4.03;;;;;;;;;;5052161;28;20036;-75
2022/04/13 04:47:28;;;;;;;8.70;3.80;;;;;;;;;;5051829;28;20029;-75
2022/04/13 04:49:54;;;;;;;11.15;4.07;;;;;;;;;;5052272;28;20032;-75
2022/04/13 04:52:20;;;;;;;8.23;3.92;;;;;;;;;;5052350;28;20063;-75
2022/04/13 04:54:46;;;;;;;10.25;3.67;;;;;;;;;;5051633;28;20037;-75
2022/04/13 04:57:12;;;;;;;11.05;4.00;;;;;;;;;;5048674;28;20037;-75
2022/04/13 04:59:37;;;;;;;8.50;4.43;;;;;;;;;;5047796;28;20057;-75
2022/04/13 05:02:03;;;;;;;10.32;3.92;;;;;;;;;;5038309;28;20445;-73
2022/04/13 05:04:29;;;;;;;9.70;4.13;;;;;;;;;;5051176;28;20035;-74
2022/04/13 05:06:55;;;;;;;7.55;3.95;;;;;;;;;;5042588;28;20046;-73
2022/04/13 05:09:25;;;;;;;12.23;4.22;;;;;;;;;;5047095;28;20120;-74
2022/04/13 05:11:51;;;;;;;9.60;4.43;;;;;;;;;;5048638;28;20036;-75
2022/04/13 05:14:18;;;;;;;9.35;4.22;;;;;;;;;;5048534;28;20021;-74
2022/04/13 05:16:44;;;;;;;10.32;4.88;;;;;;;;;;5047143;28;20025;-74
2022/04/13 05:19:10;;;;;;;12.98;4.40;;;;;;;;;;5041219;28;20454;-74
2022/04/13 05:21:36;;;;;;;9.63;4.25;;;;;;;;;;5041061;28;20053;-74
2022/04/13 05:24:02;;;;;;;12.95;5.30;;;;;;;;;;5043277;28;20044;-74
2022/04/13 05:26:28;;;;;;;13.05;5.68;;;;;;;;;;5034492;28;20360;-73
2022/04/13 05:28:54;;;;;;;16.15;4.65;;;;;;;;;;5046997;28;20053;-73
2022/04/13 05:31:20;;;;;;;12.85;4.70;;;;;;;;;;5038731;28;20044;-74
2022/04/13 05:33:45;;;;;;;14.18;4.80;;;;;;;;;;5038213;28;20064;-74
2022/04/13 05:36:12;;;;;;;14.30;4.68;;;;;;;;;;5045388;28;20056;-74
2022/04/13 05:38:40;;;;;;;18.08;5.63;;;;;;;;;;5036058;28;20033;-74
2022/04/13 05:41:05;;;;;;;17.15;5.07;;;;;;;;;;5036672;28;20500;-74
2022/04/13 05:43:36;;;;;;;14.57;4.95;;;;;;;;;;5042170;28;20067;-73
2022/04/13 05:46:03;;;;;;;20.10;4.88;;;;;;;;;;5044045;28;20035;-73
2022/04/13 05:48:29;;;;;;;23.02;5.65;;;;;;;;;;5033467;28;20025;-74
2022/04/13 05:50:55;;;;;;;17.83;4.78;;;;;;;;;;5045704;28;20650;-73
2022/04/13 05:53:22;;;;;;;23.02;5.28;;;;;;;;;;5035991;28;20409;-73
2022/04/13 05:55:55;;;;;;;18.10;5.50;;;;;;;;;;5050177;28;20041;-73
2022/04/13 05:58:23;;;;;;;20.00;5.32;;;;;;;;;;5034817;28;20550;-74
2022/04/13 06:00:49;;;;;;;18.13;5.20;;;;;;;;;;5047283;28;20044;-73
2022/04/13 06:03:17;;;;;;;25.35;5.15;;;;;;;;;;5037773;28;20439;-73
2022/04/13 06:05:44;;;;;;;23.50;5.43;;;;;;;;;;5039868;28;20021;-74
2022/04/13 06:08:10;;;;;;;19.33;5.50;;;;;;;;;;5044857;28;20043;-73
2022/04/13 06:10:35;;;;;;;11.77;4.80;;;;;;;;;;5034284;28;20041;-73
2022/04/13 06:13:01;;;;;;;18.80;5.05;;;;;;;;;;5045863;28;20090;-73
2022/04/13 06:15:31;;;;;;;22.35;5.53;;;;;;;;;;5038834;28;20025;-73
2022/04/13 06:17:58;;;;;;;15.88;5.75;;;;;;;;;;5037456;28;20052;-73
2022/04/13 06:20:24;;;;;;;23.27;5.45;;;;;;;;;;5046781;28;20482;-73
2022/04/13 06:22:52;;;;;;;18.48;5.60;;;;;;;;;;5034027;28;20039;-73
2022/04/13 06:25:18;;;;;;;22.30;6.45;;;;;;;;;;5043181;28;20037;-73
2022/04/13 06:27:45;;;;;;;14.90;5.30;;;;;;;;;;5040765;28;20398;-73
2022/04/13 06:30:12;;;;;;;23.75;5.50;;;;;;;;;;5034197;28;20048;-73
2022/04/13 06:32:40;;;;;;;23.55;5.53;;;;;;;;;;5046645;28;20048;-73
2022/04/13 06:35:08;;;;;;;17.83;5.38;;;;;;;;;;5035581;28;20039;-72
2022/04/13 06:37:38;;;;;;;16.67;5.97;;;;;;;;;;5046305;28;20028;-73
2022/04/13 06:40:06;;;;;;;17.23;5.03;;;;;;;;;;5047174;28;20033;-73
2022/04/13 06:42:34;;;;;;;14.23;5.60;;;;;;;;;;5048130;28;20021;-73
2022/04/13 06:45:00;;;;;;;16.23;5.55;;;;;;;;;;5047998;28;20043;-72
2022/04/13 06:47:29;;;;;;;21.83;5.80;;;;;;;;;;5039719;28;20013;-73
2022/04/13 06:49:55;;;;;;;10.65;4.50;;;;;;;;;;5041708;28;20502;-73
2022/04/13 06:52:21;;;;;;;13.05;4.40;;;;;;;;;;5033191;28;20029;-73
2022/04/13 06:54:50;;;;;;;10.50;4.85;;;;;;;;;;5045468;28;20033;-73
2022/04/13 06:57:16;;;;;;;11.52;4.90;;;;;;;;;;5041010;28;20029;-72
2022/04/13 06:59:42;;;;;;;12.88;4.55;;;;;;;;;;5039769;28;20029;-73
2022/04/13 07:02:12;;;;;;;11.18;4.28;;;;;;;;;;5035068;28;20503;-72
2022/04/13 07:04:39;;;;;;;13.15;4.85;;;;;;;;;;5045663;28;20028;-72
2022/04/13 07:07:05;;;;;;;13.02;4.40;;;;;;;;;;5034205;28;20033;-74
2022/04/13 07:09:31;;;;;;;8.88;4.38;;;;;;;;;;5040388;28;20695;-73
2022/04/13 07:11:57;;;;;;;13.68;4.45;;;;;;;;;;5041700;28;20104;-68
2022/04/13 07:14:23;;;;;;;11.27;4.50;;;;;;;;;;5043435;28;20527;-69
2022/04/13 07:16:49;;;;;;;12.27;5.20;;;;;;;;;;5044739;28;20029;-69
2022/04/13 07:19:14;;;;;;;15.70;5.95;;;;;;;;;;5041718;28;20108;-68
2022/04/13 07:21:40;;;;;;;11.02;5.43;;;;;;;;;;5044717;28;20079;-67
2022/04/13 07:24:06;;;;;;;19.42;5.20;;;;;;;;;;5042742;28;20060;-68
2022/04/13 07:26:32;;;;;;;17.17;5.75;;;;;;;;;;5046105;28;20179;-70
2022/04/13 07:28:58;;;;;;;10.15;4.72;;;;;;;;;;5035136;28;20112;-67
2022/04/13 07:31:25;;;;;;;15.30;4.53;;;;;;;;;;5048187;28;20385;-67
2022/04/13 07:33:51;;;;;;;14.13;5.35;;;;;;;;;;5048069;28;20036;-67
2022/04/13 07:36:16;;;;;;;12.80;4.60;;;;;;;;;;5036919;28;20693;-69
2022/04/13 07:38:42;;;;;;;9.98;4.20;;;;;;;;;;5038106;28;20052;-66
2022/04/13 07:41:08;;;;;;;9.82;4.43;;;;;;;;;;5042616;28;20035;-69
2022/04/13 07:43:34;;;;;;;11.95;4.70;;;;;;;;;;5044134;28;20048;-69
2022/04/13 07:46:00;;;;;;;13.13;4.10;;;;;;;;;;5037848;28;20040;-72
2022/04/13 07:48:28;;;;;;;12.15;4.10;;;;;;;;;;5044009;28;20071;-72
2022/04/13 07:50:54;;;;;;;12.55;4.30;;;;;;;;;;5045382;28;20040;-69
2022/04/13 07:53:22;;;;;;;11.27;3.85;;;;;;;;;;5043498;28;20064;-70
2022/04/13 07:55:48;;;;;;;11.43;4.20;;;;;;;;;;5034277;28;20040;-70
2022/04/13 07:58:14;;;;;;;10.38;4.57;;;;;;;;;;5044147;28;20530;-74
2022/04/13 08:00:40;;;;;;;10.90;4.30;;;;;;;;;;5045378;28;20025;-76
2022/04/13 08:03:06;;;;;;;8.43;3.92;;;;;;;;;;5046367;28;20504;-72
2022/04/13 08:05:32;;;;;;;11.93;3.88;;;;;;;;;;5048268;28;20064;-72
2022/04/13 08:07:58;;;;;;;8.93;4.05;;;;;;;;;;5035715;28;20089;-77
2022/04/13 08:10:24;;;;;;;9.23;3.70;;;;;;;;;;5048888;28;20062;-72
2022/04/13 08:12:50;;;;;;;8.18;4.22;;;;;;;;;;5048156;28;20022;-74
2022/04/13 08:15:16;;;;;;;9.75;3.97;;;;;;;;;;5045714;28;20021;-74
2022/04/13 08:17:42;;;;;;;8.27;4.53;;;;;;;;;;5044483;28;20025;-74
2022/04/13 08:20:10;;;;;;;9.07;4.60;;;;;;;;;;5041239;28;20473;-73
2022/04/13 08:22:36;;;;;;;10.57;4.47;;;;;;;;;;5050634;28;20056;-72
2022/04/13 08:25:01;;;;;;;9.20;4.47;;;;;;;;;;5036653;28;20486;-73
2022/04/13 08:27:27;;;;;;;9.23;4.65;;;;;;;;;;5043825;28;20037;-72
2022/04/13 08:29:53;;;;;;;10.73;4.10;;;;;;;;;;5043690;28;20075;-73
2022/04/13 08:32:19;;;;;;;9.13;4.20;;;;;;;;;;5050570;28;20504;-72
2022/04/13 08:34:48;;;;;;;12.95;4.35;;;;;;;;;;5036709;28;20041;-72
2022/04/13 08:37:14;;;;;;;8.05;3.95;;;;;;;;;;5044826;28;20052;-72
2022/04/13 08:39:40;;;;;;;10.48;4.07;;;;;;;;;;5040309;28;20371;-73
2022/04/13 08:42:08;;;;;;;7.72;3.72;;;;;;;;;;5035782;28;20359;-73
2022/04/13 08:44:43;;;;;;;9.38;4.20;;;;;;;;;;5047744;28;20033;-73
2022/04/13 08:47:15;;;;;;;9.00;4.30;;;;;;;;;;5031740;28;20025;-72
2022/04/13 08:49:44;;;;;;;11.60;4.85;;;;;;;;;;5041879;28;20044;-73
2022/04/13 08:52:13;;;;;;;7.47;4.50;;;;;;;;;;5037586;28;20025;-72
2022/04/13 08:54:53;;;;;;;10.90;5.00;;;;;;;;;;5049960;28;20017;-73
2022/04/13 08:57:21;;;;;;;9.77;4.53;;;;;;;;;;5043987;28;20034;-72
2022/04/13 09:00:17;;;;;;;11.82;5.30;;;;;;;;;;5043069;28;20028;-73
2022/04/13 09:03:11;;;;;;;12.38;4.95;;;;;;;;;;5031085;28;20521;-73
2022/04/13 09:05:39;;;;;;;13.30;4.68;;;;;;;;;;5041363;28;20033;-73
2022/04/13 09:08:08;;;;;;;9.15;5.10;;;;;;;;;;5043416;28;20100;-73
2022/04/13 09:10:36;;;;;;;10.07;5.07;;;;;;;;;;5042108;28;20016;-73
2022/04/13 09:13:02;;;;;;;7.45;4.88;;;;;;;;;;5046288;28;20586;-73
2022/04/13 09:15:28;;;;;;;8.52;5.35;;;;;;;;;;5041083;28;20040;-73
2022/04/13 09:17:54;;;;;;;11.30;5.05;;;;;;;;;;5050991;28;20036;-73
2022/04/13 09:20:20;;;;;;;10.85;5.13;;;;;;;;;;5035823;28;20368;-73
2022/04/13 09:22:47;;;;;;;8.63;4.70;;;;;;;;;;5047924;28;20044;-73
2022/04/13 09:25:13;;;;;;;10.38;5.28;;;;;;;;;;5037226;28;20029;-73
2022/04/13 09:27:39;;;;;;;8.18;4.85;;;;;;;;;;5040790;28;20047;-73
2022/04/13 09:30:06;;;;;;;11.88;4.82;;;;;;;;;;5043037;28;20040;-74
2022/04/13 09:32:34;;;;;;;13.93;4.88;;;;;;;;;;5034846;28;20022;-73
2022/04/13 09:35:00;;;;;;;10.02;5.13;;;;;;;;;;5050504;28;20043;-73
2022/04/13 09:37:26;;;;;;;11.43;5.43;;;;;;;;;;5042325;28;20033;-73
2022/04/13 09:39:52;;;;;;;9.15;6.15;;;;;;;;;;5042971;28;20040;-73
2022/04/13 09:42:19;;;;;;;11.70;6.18;;;;;;;;;;5050604;28;20064;-73
2022/04/13 09:44:54;;;;;;;12.25;5.68;;;;;;;;;;5038288;28;20047;-73
2022/04/13 09:47:19;;;;;;;10.02;6.25;;;;;;;;;;5037483;28;20040;-73
2022/04/13 09:49:50;;;;;;;9.50;5.40;;;;;;;;;;5047308;28;20493;-73
2022/04/13 09:52:16;;;;;;;8.85;5.88;;;;;;;;;;5042776;28;20032;-73
2022/04/13 09:54:45;;;;;;;14.15;6.30;;;;;;;;;;5035923;28;20029;-73
2022/04/13 09:57:25;;;;;;;11.50;5.82;;;;;;;;;;5048890;28;20029;-73
2022/04/13 09:59:59;;;;;;;10.10;5.83;;;;;;;;;;5039085;28;20047;-73
2022/04/13 10:02:39;;;;;;;12.27;5.90;;;;;;;;;;5047171;28;20482;-73
2022/04/13 10:05:08;;;;;;;11.88;6.03;;;;;;;;;;5049015;28;20457;-73
2022/04/13 10:07:34;;;;;;;14.43;6.93;;;;;;;;;;5045445;28;20036;-74
2022/04/13 10:10:01;;;;;;;11.25;6.07;;;;;;;;;;5052774;28;20040;-74
2022/04/13 10:12:27;;;;;;;11.45;5.65;;;;;;;;;;5048259;28;20493;-73
2022/04/13 10:15:06;;;;;;;9.70;6.00;;;;;;;;;;5047941;28;20031;-75
2022/04/13 10:17:33;;;;;;;12.20;6.50;;;;;;;;;;5048997;28;20037;-73
2022/04/13 10:19:59;;;;;;;14.55;6.10;;;;;;;;;;5045934;28;20028;-74
2022/04/13 10:22:25;;;;;;;11.23;5.80;;;;;;;;;;5044492;28;20115;-73
2022/04/13 10:24:51;;;;;;;10.30;5.47;;;;;;;;;;5048290;28;20036;-74
2022/04/13 10:27:19;;;;;;;11.32;6.13;;;;;;;;;;5047940;28;20021;-74
2022/04/13 10:29:48;;;;;;;10.98;5.75;;;;;;;;;;5048537;28;20029;-74
2022/04/13 10:32:17;;;;;;;9.43;5.38;;;;;;;;;;5045130;28;20261;-75
2022/04/13 10:34:48;;;;;;;11.85;5.72;;;;;;;;;;5044892;28;20017;-73
2022/04/13 10:37:17;;;;;;;11.00;5.97;;;;;;;;;;5046282;28;20386;-74
2022/04/13 10:39:45;;;;;;;13.35;5.35;;;;;;;;;;5048844;28;20040;-73
2022/04/13 10:42:13;;;;;;;10.30;5.28;;;;;;;;;;5045169;28;20048;-74
2022/04/13 10:44:53;;;;;;;12.07;5.78;;;;;;;;;;5045248;28;20029;-73
2022/04/13 10:47:40;;;;;;;11.55;5.88;;;;;;;;;;5045842;28;20025;-73
2022/04/13 10:50:10;;;;;;;10.48;5.32;;;;;;;;;;5046676;28;20033;-73
2022/04/13 10:52:42;;;;;;;14.25;5.90;;;;;;;;;;5044329;28;20037;-73
2022/04/13 10:55:11;;;;;;;12.52;6.38;;;;;;;;;;5047390;28;20025;-74
2022/04/13 10:57:40;;;;;;;13.70;6.25;;;;;;;;;;5045868;28;20037;-73
2022/04/13 11:00:10;;;;;;;12.23;5.97;;;;;;;;;;5041887;28;20037;-73
2022/04/13 11:02:46;;;;;;;13.85;6.13;;;;;;;;;;5034588;28;20044;-73
2022/04/13 11:05:12;;;;;;;10.93;5.63;;;;;;;;;;5034020;28;20028;-73
2022/04/13 11:07:41;;;;;;;15.60;5.78;;;;;;;;;;5041303;28;20041;-74
2022/04/13 11:10:12;;;;;;;18.95;6.13;;;;;;;;;;5049036;28;20036;-74
2022/04/13 11:12:39;;;;;;;16.48;5.57;;;;;;;;;;5036246;28;20025;-74
2022/04/13 11:15:05;;;;;;;12.18;5.85;;;;;;;;;;5036006;28;20082;-73
2022/04/13 11:17:31;;;;;;;11.52;6.10;;;;;;;;;;5047446;28;20028;-73
2022/04/13 11:20:15;;;;;;;13.65;6.07;;;;;;;;;;5047981;28;20252;-73
2022/04/13 11:22:41;;;;;;;12.13;6.13;;;;;;;;;;5032111;28;20026;-73
2022/04/13 11:25:07;;;;;;;11.38;6.28;;;;;;;;;;5031658;28;20512;-72
2022/04/13 11:27:52;;;;;;;12.90;6.50;;;;;;;;;;5039562;28;20026;-72
2022/04/13 11:30:19;;;;;;;14.05;6.40;;;;;;;;;;5041334;28;20036;-74
2022/04/13 11:32:46;;;;;;;14.35;6.82;;;;;;;;;;5044199;28;20021;-74
2022/04/13 11:35:26;;;;;;;14.38;6.60;;;;;;;;;;5043978;28;20087;-73
2022/04/13 11:38:06;;;;;;;16.23;6.10;;;;;;;;;;5044938;28;20044;-74
2022/04/13 11:40:32;;;;;;;15.43;6.25;;;;;;;;;;5034003;28;20037;-74
2022/04/13 11:43:02;;;;;;;15.48;6.18;;;;;;;;;;5045836;28;20025;-74
2022/04/13 11:45:29;;;;;;;15.82;6.18;;;;;;;;;;5040100;28;20033;-74
2022/04/13 11:48:00;;;;;;;14.38;6.03;;;;;;;;;;5042353;28;20025;-74
2022/04/13 11:50:27;;;;;;;;;;;;;;;;;;5052572;28;20037;-73
2022/04/13 11:53:10;;;;;;;16.48;5.93;;;;;;;;;;5050669;28;19935;-74
2022/04/13 11:55:44;;;;;;;13.85;6.32;;;;;;;;;;5040647;28;20504;-74
2022/04/13 11:58:12;;;;;;;11.55;5.70;;;;;;;;;;5040180;28;20034;-73
2022/04/13 12:00:44;;;;;;;12.52;5.32;;;;;;;;;;5047982;28;20059;-73
2022/04/13 12:03:20;;;;;;;14.73;6.18;;;;;;;;;;5048254;28;20553;-73
2022/04/13 12:05:55;;;;;;;14.13;6.25;;;;;;;;;;5042030;28;20033;-73
2022/04/13 12:08:32;;;;;;;14.10;7.00;;;;;;;;;;5046653;28;20029;-73
2022/04/13 12:11:03;;;;;;;17.85;6.38;;;;;;;;;;5045432;28;20057;-72
2022/04/13 12:13:43;;;;;;;16.05;6.55;;;;;;;;;;5052521;28;20504;-72
2022/04/13 12:16:11;;;;;;;15.83;6.67;;;;;;;;;;5039955;28;20064;-73
2022/04/13 12:18:38;;;;;;;13.35;6.07;;;;;;;;;;5048421;28;20029;-72
2022/04/13 12:21:17;;;;;;;17.48;6.10;;;;;;;;;;5052580;28;20032;-73
2022/04/13 12:23:44;;;;;;;18.67;6.68;;;;;;;;;;5043990;28;20032;-73
2022/04/13 12:26:10;;;;;;;13.27;6.22;;;;;;;;;;5043723;28;20036;-73
2022/04/13 12:28:37;;;;;;;10.75;5.43;;;;;;;;;;5036028;28;20045;-74
2022/04/13 12:31:10;;;;;;;13.82;5.45;;;;;;;;;;5050405;28;20497;-73
2022/04/13 12:33:38;;;;;;;11.77;5.43;;;;;;;;;;5049940;28;20458;-73
2022/04/13 12:36:05;;;;;;;11.30;5.20;;;;;;;;;;5052290;28;20028;-73
2022/04/13 12:38:37;;;;;;;13.13;5.20;;;;;;;;;;5050823;28;20044;-73
2022/04/13 12:41:09;;;;;;;16.25;5.47;;;;;;;;;;5048147;28;20025;-73
2022/04/13 12:43:36;;;;;;;15.18;6.07;;;;;;;;;;5049399;28;20036;-73
2022/04/13 12:46:13;;;;;;;18.58;6.15;;;;;;;;;;5038130;28;20056;-73
2022/04/13 12:48:41;;;;;;;17.63;6.28;;;;;;;;;;5048002;28;20048;-74
2022/04/13 12:51:08;;;;;;;11.55;5.38;;;;;;;;;;5033823;28;20363;-74
2022/04/13 12:53:54;;;;;;;19.08;5.90;;;;;;;;;;5043217;28;20037;-74
2022/04/13 12:56:25;;;;;;;15.95;6.05;;;;;;;;;;5042942;28;20033;-73
2022/04/13 12:58:52;;;;;;;24.13;6.32;;;;;;;;;;5044470;28;20463;-72
2022/04/13 13:01:26;;;;;;;17.88;6.05;;;;;;;;;;5036395;28;20036;-73
2022/04/13 13:03:53;;;;;;;10.90;3.33;;;;;;;;;;5040524;28;20041;-73
2022/04/13 13:06:19;;;;;;;10.05;3.72;;;;;;;;;;5044389;28;20413;-73
2022/04/13 13:08:55;;;;;;;12.57;3.60;;;;;;;;;;5039033;28;20458;-73
2022/04/13 13:11:29;;;;;;;7.03;2.80;;;;;;;;;;5047035;28;20033;-74
2022/04/13 13:14:13;;;;;;;9.20;2.40;;;;;;;;;;5050062;28;20047;-72
2022/04/13 13:16:42;;;;;;;10.15;2.65;;;;;;;;;;5046696;28;20032;-74
2022/04/13 13:19:17;;;;;;;8.32;2.60;;;;;;;;;;5043968;22;20041;-70
2022/04/13 13:22:10;;;;;;;7.78;1.92;;;;;;;;;;5015565;28;20033;-70
2022/04/13 13:24:37;;;;;;;8.18;2.17;;;;;;;;;;5029545;28;20034;-70
2022/04/13 13:27:06;;;;;;;7.32;2.25;;;;;;;;;;5013667;28;20022;-70
2022/04/13 13:29:32;;;;;;;6.30;2.13;;;;;;;;;;5026312;28;20038;-70
2022/04/13 13:32:10;;;;;;;6.28;2.30;;;;;;;;;;5026832;28;20088;-71
2022/04/13 13:34:36;;;;;;;7.45;2.45;;;;;;;;;;5028843;28;20029;-71
2022/04/13 13:37:01;;;;;;;5.88;2.40;;;;;;;;;;5028314;28;20056;-70
2022/04/13 13:39:28;;;;;;;6.15;2.20;;;;;;;;;;5017428;28;20028;-71
2022/04/13 13:42:10;;;;;;;7.53;2.28;;;;;;;;;;5028105;28;20361;-72
2022/04/13 13:44:36;;;;;;;6.30;2.17;;;;;;;;;;5030294;28;20725;-70
2022/04/13 13:47:03;;;;;;;7.43;1.98;;;;;;;;;;5027068;28;20053;-71
2022/04/13 13:49:29;;;;;;;5.72;2.55;;;;;;;;;;5029830;28;20033;-70
2022/04/13 13:51:55;;;;;;;6.22;2.15;;;;;;;;;;5029899;28;20037;-70
2022/04/13 13:54:22;;;;;;;5.97;2.20;;;;;;;;;;5030068;28;20029;-70
2022/04/13 13:56:48;;;;;;;11.75;2.05;;;;;;;;;;5029589;28;20037;-71
2022/04/13 13:59:14;;;;;;;11.73;2.58;;;;;;;;;;5030042;28;20229;-69
2022/04/13 14:01:40;;;;;;;5.90;1.90;;;;;;;;;;5029854;28;20025;-70
2022/04/13 14:04:06;;;;;;;9.60;2.60;;;;;;;;;;5029788;28;20041;-70
2022/04/13 14:06:32;;;;;;;8.82;2.40;;;;;;;;;;5028495;28;20091;-70
2022/04/13 14:08:58;;;;;;;8.75;2.50;;;;;;;;;;5029171;28;20025;-71
2022/04/13 14:11:24;;;;;;;5.53;2.38;;;;;;;;;;5028756;28;20068;-70
2022/04/13 14:13:50;;;;;;;10.55;2.65;;;;;;;;;;5025147;28;20073;-70
2022/04/13 14:16:17;;;;;;;9.10;2.67;;;;;;;;;;5020863;28;20021;-70
2022/04/13 14:18:44;;;;;;;7.60;2.05;;;;;;;;;;5029116;28;20386;-70
2022/04/13 14:21:10;;;;;;;8.20;2.30;;;;;;;;;;5029941;28;20467;-70
2022/04/13 14:23:37;;;;;;;5.15;2.13;;;;;;;;;;5027872;28;20037;-70
2022/04/13 14:26:03;;;;;;;11.10;2.63;;;;;;;;;;5018876;28;20041;-70
2022/04/13 14:28:29;;;;;;;14.40;2.40;;;;;;;;;;5028804;28;20073;-70
2022/04/13 14:30:55;;;;;;;17.77;3.13;;;;;;;;;;5024589;28;20496;-69
2022/04/13 14:33:21;;;;;;;8.75;2.50;;;;;;;;;;5049054;28;20064;-72
2022/04/13 14:35:47;;;;;;;6.13;2.20;;;;;;;;;;5049455;28;20068;-70
2022/04/13 14:38:14;;;;;;;8.25;2.47;;;;;;;;;;5037690;28;20040;-71
2022/04/13 14:40:41;;;;;;;8.63;2.50;;;;;;;;;;5029795;28;20029;-70